• Join FlightAware (Why Join?)
  • Login
  • US Flag 
04:43AM EDT


 

Airport Tracker/Info


-or-


 

Live Flight TrackerFlight Track Log ✈ DAL3673 ✈ 25-Apr-2013 ✈ KMSP - KLSE

Flight Track Log - Related Links

Times and Time Zones

All times are in EDT time to prevent confusion due to time zone crossing. See the DAL3673 flight status page for this flight to view local times or setup timezone preferences in your user account.

Time Position Orientation Groundspeed Altitude Reporting Facility
EDT Latitude Longitude Course Direction KTS MPH feet Rate Location/Type
03:38PM 44.9000 -93.2667 119° Southeast 168 193 2,800  Level Minneapolis TRACON
03:38PM 44.8919 -93.2983 250° West 194 223 3,800 1,740 Climbing Minneapolis Center
03:39PM 44.8325 -93.2983 180° South 261 300 5,700 2,460 Climbing Minneapolis Center
03:40PM 44.7224 -92.9000 139° Southeast  Level Estimated
03:40PM 44.7878 -93.1969 122° Southeast 295 339 9,000  Level Minneapolis Center
03:41PM 44.6319 -92.8709 167° South  Level FlightAware Approximate
03:41PM 44.7386 -93.0864 122° Southeast 328 377 10,900  Level Minneapolis Center
03:42PM 44.5820 -92.7610 141° Southeast  Level Estimated
03:42PM 44.6697 -92.9367 123° Southeast 378 435 11,000  Level Minneapolis Center
03:43PM 44.5320 -92.6513 119° Southeast  Level Estimated
03:43PM 44.6117 -92.8094 123° Southeast 386 444 11,000  Level Minneapolis Center
03:44PM 44.5539 -92.6844 123° Southeast 384 442 11,000  Level Minneapolis Center
03:45PM 44.4967 -92.5594 123° Southeast 381 438 11,000  Level Minneapolis Center
03:46PM 44.4383 -92.4344 123° Southeast 385 443 11,000  Level Minneapolis Center
03:48PM 44.3700 -92.2892 123° Southeast 384 442 11,000  Level Minneapolis Center
03:49PM 44.3214 -92.1861 123° Southeast 380 437 11,100  Climbing Minneapolis Center
03:50PM 44.2503 -92.0333 123° Southeast 381 438 11,100 -360 Level Minneapolis Center
03:51PM 44.2194 -91.9022 108° East 361 415 10,400 -900 Descending Minneapolis Center
03:52PM 44.2044 -91.7725 99° East 316 364 9,300 -1,260 Descending Minneapolis Center
03:53PM 44.1939 -91.6636 98° East 290 334 7,900 -1,500 Descending Minneapolis Center
03:54PM 44.1558 -91.5692 119° Southeast 271 312 6,200 -1,740 Descending Minneapolis Center
03:55PM 44.1081 -91.4975 133° Southeast 257 296 4,400 -900 Descending Minneapolis Center
03:57PM 44.0214 -91.3658 132° Southeast 222 255 3,500 -480 Descending Minneapolis Center